createdAt,value
2018-07-27T00:02:10.968Z,34.77
2018-07-27T00:04:43.602Z,36.93
2018-07-27T00:07:16.167Z,31.43
2018-07-27T00:09:48.829Z,37.70
2018-07-27T00:12:30.846Z,27.47
2018-07-27T00:15:03.669Z,30.12
2018-07-27T00:17:41.186Z,28.00
2018-07-27T00:20:14.474Z,28.07
2018-07-27T00:22:46.891Z,30.40
2018-07-27T00:25:18.323Z,23.37
2018-07-27T00:27:51.009Z,24.87
2018-07-27T00:30:23.569Z,29.27
2018-07-27T00:32:56.153Z,32.23
2018-07-27T00:35:28.636Z,24.97
2018-07-27T00:38:01.086Z,28.17
2018-07-27T00:40:33.606Z,40.63
2018-07-27T00:43:06.160Z,39.33
2018-07-27T00:45:38.856Z,36.60
2018-07-27T00:48:11.437Z,38.00
2018-07-27T00:50:43.985Z,34.83
2018-07-27T00:53:16.886Z,38.30
2018-07-27T00:55:50.742Z,30.57
2018-07-27T00:58:23.199Z,38.10
2018-07-27T01:00:55.630Z,33.87
2018-07-27T01:03:28.154Z,34.67
2018-07-27T01:06:00.586Z,26.40
2018-07-27T01:08:33.034Z,25.97
2018-07-27T01:11:06.109Z,24.30
2018-07-27T01:13:38.537Z,27.67
2018-07-27T01:16:11.585Z,27.40
2018-07-27T01:18:44.279Z,25.27
2018-07-27T01:21:18.258Z,26.60
2018-07-27T01:23:50.871Z,25.70
2018-07-27T01:26:23.453Z,34.27
2018-07-27T01:28:56.072Z,33.00
2018-07-27T01:31:28.657Z,35.43
2018-07-27T01:34:01.186Z,26.47
2018-07-27T01:36:33.793Z,24.93
2018-07-27T01:39:08.662Z,26.83
2018-07-27T01:41:41.252Z,31.00
2018-07-27T01:44:15.765Z,27.60
2018-07-27T01:46:50.235Z,29.20
2018-07-27T01:49:24.692Z,28.00
2018-07-27T01:51:57.762Z,24.93
2018-07-27T01:54:30.963Z,24.87
2018-07-27T01:57:03.516Z,31.03
2018-07-27T01:59:36.067Z,28.55
2018-07-27T02:02:08.661Z,28.87
2018-07-27T02:04:41.142Z,28.07
2018-07-27T02:07:13.641Z,29.18
2018-07-27T02:09:46.078Z,32.03
2018-07-27T02:12:18.635Z,28.67
2018-07-27T02:14:50.971Z,24.80
2018-07-27T02:17:23.485Z,27.37
2018-07-27T02:19:56.158Z,29.07
2018-07-27T02:22:28.745Z,27.87
2018-07-27T02:25:01.160Z,24.50
2018-07-27T02:27:33.677Z,25.00
2018-07-27T02:30:06.306Z,28.30
2018-07-27T02:32:38.975Z,30.60
2018-07-27T02:35:11.559Z,28.10
2018-07-27T02:37:44.119Z,24.73
2018-07-27T02:40:16.408Z,25.80
2018-07-27T02:42:49.065Z,31.27
2018-07-27T02:45:21.540Z,31.77
2018-07-27T02:47:54.241Z,26.40
2018-07-27T02:50:26.762Z,25.63
2018-07-27T02:52:59.313Z,24.83
2018-07-27T02:55:31.695Z,25.97
2018-07-27T02:58:04.117Z,25.73
2018-07-27T03:00:36.890Z,30.75
2018-07-27T03:03:09.277Z,25.50
2018-07-27T03:05:41.822Z,23.50
2018-07-27T03:08:14.299Z,25.00
2018-07-27T03:10:46.722Z,28.33
2018-07-27T03:13:19.072Z,28.00
2018-07-27T03:15:51.473Z,29.42
2018-07-27T03:18:23.911Z,26.60
2018-07-27T03:20:56.574Z,28.20
2018-07-27T03:23:29.108Z,29.65
2018-07-27T03:26:02.093Z,28.10
2018-07-27T03:28:34.688Z,30.07
2018-07-27T03:31:07.139Z,28.80
2018-07-27T03:33:40.531Z,28.00
2018-07-27T03:36:12.965Z,29.40
2018-07-27T03:38:45.329Z,23.90
2018-07-27T03:41:16.669Z,20.47
2018-07-27T03:43:49.229Z,21.30
2018-07-27T03:46:21.706Z,22.33
2018-07-27T03:48:54.214Z,27.77
2018-07-27T03:51:26.648Z,22.50
2018-07-27T03:53:59.473Z,26.33
2018-07-27T03:56:31.940Z,25.67
2018-07-27T03:59:04.545Z,27.97
2018-07-27T04:01:36.938Z,28.37
2018-07-27T04:04:09.628Z,29.60
2018-07-27T04:06:42.043Z,24.63
2018-07-27T04:09:14.634Z,27.80
2018-07-27T04:11:47.000Z,27.97
2018-07-27T04:14:19.757Z,28.13
2018-07-27T04:16:52.201Z,19.07
2018-07-27T04:19:24.953Z,28.17
2018-07-27T04:21:57.401Z,29.03
2018-07-27T04:24:29.895Z,26.60
2018-07-27T04:27:02.425Z,21.70
2018-07-27T04:29:34.930Z,29.80
2018-07-27T04:32:07.462Z,26.12
2018-07-27T04:34:40.628Z,27.17
2018-07-27T04:37:13.092Z,28.83
2018-07-27T04:39:46.725Z,27.17
2018-07-27T04:42:19.191Z,26.35
2018-07-27T04:44:51.659Z,23.93
2018-07-27T04:47:24.237Z,27.07
2018-07-27T04:49:56.711Z,23.67
2018-07-27T04:52:29.436Z,25.70
2018-07-27T04:55:02.795Z,25.80
2018-07-27T04:57:35.595Z,23.10
2018-07-27T05:00:08.567Z,18.27
2018-07-27T05:02:41.020Z,23.12
2018-07-27T05:05:13.666Z,19.40
2018-07-27T05:07:46.427Z,21.93
2018-07-27T05:10:24.482Z,21.52
2018-07-27T05:12:56.990Z,24.53
2018-07-27T05:15:29.605Z,19.80
2018-07-27T05:18:02.063Z,21.53
2018-07-27T05:20:35.394Z,18.90
2018-07-27T05:23:07.759Z,21.53
2018-07-27T05:25:40.120Z,26.37
2018-07-27T05:28:12.746Z,21.40
2018-07-27T05:30:45.144Z,26.15
2018-07-27T05:33:17.548Z,25.07
2018-07-27T05:35:49.932Z,20.63
2018-07-27T05:38:22.503Z,24.30
2018-07-27T05:40:54.921Z,23.57
2018-07-27T05:43:27.424Z,22.47
2018-07-27T05:46:00.158Z,22.50
2018-07-27T05:48:32.631Z,23.27
2018-07-27T05:51:05.207Z,20.50
2018-07-27T05:53:38.075Z,21.03
2018-07-27T05:56:10.725Z,18.60
2018-07-27T05:58:43.221Z,21.83
2018-07-27T06:01:15.820Z,17.47
2018-07-27T06:03:48.366Z,21.80
2018-07-27T06:06:20.922Z,19.90
2018-07-27T06:08:53.455Z,24.50
2018-07-27T06:11:27.242Z,24.60
2018-07-27T06:14:00.491Z,23.73
2018-07-27T06:16:33.000Z,24.07
2018-07-27T06:19:05.700Z,22.98
2018-07-27T06:21:38.057Z,24.80
2018-07-27T06:24:10.090Z,21.30
2018-07-27T06:26:42.755Z,24.07
2018-07-27T06:29:16.301Z,24.53
2018-07-27T06:31:48.922Z,24.10
2018-07-27T06:34:21.207Z,19.67
2018-07-27T06:36:53.693Z,22.90
2018-07-27T06:39:26.514Z,24.77
2018-07-27T06:41:58.730Z,21.77
2018-07-27T06:44:31.470Z,21.90
2018-07-27T06:47:04.221Z,21.67
2018-07-27T06:49:37.484Z,19.83
2018-07-27T06:52:10.827Z,19.63
2018-07-27T06:54:42.061Z,20.13
2018-07-27T06:57:15.398Z,21.03
2018-07-27T06:59:47.863Z,22.07
2018-07-27T07:02:20.462Z,23.30
2018-07-27T07:04:52.907Z,23.87
2018-07-27T07:07:25.426Z,24.20
2018-07-27T07:10:00.013Z,26.47
2018-07-27T07:12:35.279Z,19.60
2018-07-27T07:15:10.847Z,20.17
2018-07-27T07:17:47.322Z,21.63
2018-07-27T07:20:19.764Z,20.00
2018-07-27T07:22:52.197Z,23.77
2018-07-27T07:25:24.750Z,20.30
2018-07-27T07:27:57.424Z,24.77
2018-07-27T07:30:30.671Z,23.90
2018-07-27T07:33:03.926Z,21.40
2018-07-27T07:35:36.667Z,22.55
2018-07-27T07:38:09.168Z,22.47
2018-07-27T07:40:41.585Z,21.90
2018-07-27T07:43:14.141Z,21.50
2018-07-27T07:45:47.310Z,20.30
2018-07-27T07:48:20.517Z,24.70
2018-07-27T07:50:52.884Z,24.30
2018-07-27T07:53:26.399Z,19.77
2018-07-27T07:55:58.813Z,19.77
2018-07-27T07:58:31.141Z,22.37
2018-07-27T08:01:09.969Z,24.23
2018-07-27T08:03:42.544Z,19.90
2018-07-27T08:06:15.000Z,27.27
2018-07-27T08:08:47.430Z,21.37
2018-07-27T08:11:19.945Z,22.23
2018-07-27T08:13:52.516Z,23.20
2018-07-27T08:16:25.257Z,28.63
2018-07-27T08:18:57.747Z,25.40
2018-07-27T08:21:30.273Z,20.03
2018-07-27T08:24:02.758Z,24.47
2018-07-27T08:27:07.759Z,24.27
2018-07-27T08:29:42.565Z,23.10
2018-07-27T08:32:15.346Z,21.87
2018-07-27T08:34:47.813Z,22.03
2018-07-27T08:37:20.406Z,19.77
2018-07-27T08:39:52.952Z,20.23
2018-07-27T08:42:25.930Z,23.80
2018-07-27T08:44:58.416Z,21.50
2018-07-27T08:47:31.937Z,22.77
2018-07-27T08:50:04.648Z,24.27
2018-07-27T08:52:37.130Z,22.63
2018-07-27T08:55:08.509Z,21.03
2018-07-27T08:57:41.486Z,23.27
2018-07-27T09:00:14.585Z,20.87
2018-07-27T09:02:47.092Z,22.30
2018-07-27T09:05:19.581Z,24.00
2018-07-27T09:07:51.981Z,25.57
2018-07-27T09:10:24.437Z,24.33
2018-07-27T09:12:58.998Z,22.95
2018-07-27T09:15:31.480Z,21.80
2018-07-27T09:18:04.113Z,23.47
2018-07-27T09:20:37.075Z,22.73
2018-07-27T09:23:22.708Z,22.20
2018-07-27T09:26:03.400Z,24.47
2018-07-27T09:28:42.809Z,21.90
2018-07-27T09:31:15.374Z,25.90
2018-07-27T09:33:47.830Z,24.10
2018-07-27T09:36:20.342Z,21.27
2018-07-27T09:38:52.748Z,27.00
2018-07-27T09:41:25.252Z,24.47
2018-07-27T09:43:58.172Z,25.50
2018-07-27T09:46:30.736Z,22.23
2018-07-27T09:49:03.466Z,24.87
2018-07-27T09:51:36.839Z,25.40
2018-07-27T09:54:09.416Z,29.53
2018-07-27T09:56:41.832Z,24.65
2018-07-27T09:59:14.348Z,26.47
2018-07-27T10:01:46.864Z,22.13
2018-07-27T10:04:19.434Z,21.43
2018-07-27T10:06:51.944Z,22.55
2018-07-27T10:09:24.888Z,22.03
2018-07-27T10:11:56.470Z,22.73
2018-07-27T10:14:29.169Z,24.30
2018-07-27T10:17:01.956Z,22.07
2018-07-27T10:19:34.695Z,20.80
2018-07-27T10:22:07.858Z,21.13
2018-07-27T10:24:40.989Z,37.87
2018-07-27T10:27:13.597Z,23.13
2018-07-27T10:29:46.465Z,20.67
2018-07-27T10:32:19.001Z,25.50
2018-07-27T10:34:51.720Z,20.87
2018-07-27T10:37:24.536Z,23.27
2018-07-27T10:41:26.554Z,21.93
2018-07-27T10:43:59.078Z,25.37
2018-07-27T10:46:31.625Z,21.57
2018-07-27T10:49:04.090Z,21.83
2018-07-27T10:51:37.537Z,25.50
2018-07-27T10:54:10.801Z,25.68
2018-07-27T10:56:43.277Z,25.83
2018-07-27T10:59:16.069Z,31.93
2018-07-27T11:01:48.753Z,29.33
2018-07-27T11:04:21.087Z,30.50
2018-07-27T11:06:53.534Z,26.60
2018-07-27T11:09:25.986Z,33.50
2018-07-27T11:11:59.312Z,29.40
2018-07-27T11:14:32.606Z,25.35
2018-07-27T11:17:05.763Z,36.83
2018-07-27T11:19:38.209Z,22.03
2018-07-27T11:22:10.987Z,32.00
2018-07-27T11:24:43.659Z,30.70
2018-07-27T11:27:16.244Z,36.23
2018-07-27T11:29:49.075Z,32.57
2018-07-27T11:32:22.566Z,37.27
2018-07-27T11:34:56.597Z,40.27
2018-07-27T11:37:29.293Z,32.10
2018-07-27T11:40:02.746Z,41.27
2018-07-27T11:42:35.441Z,30.23
2018-07-27T11:45:08.246Z,36.10
2018-07-27T11:47:40.846Z,38.10
2018-07-27T11:50:14.228Z,38.63
2018-07-27T11:52:47.294Z,30.00
2018-07-27T11:55:19.778Z,37.30
2018-07-27T11:57:52.761Z,33.83
2018-07-27T12:00:25.353Z,29.27
2018-07-27T12:02:57.831Z,33.30
2018-07-27T12:05:30.281Z,29.67
2018-07-27T12:08:02.877Z,33.00
2018-07-27T12:10:35.401Z,26.80
2018-07-27T12:13:08.158Z,28.60
2018-07-27T12:15:40.599Z,28.10
2018-07-27T12:18:13.051Z,26.13
2018-07-27T12:20:45.802Z,32.73
2018-07-27T12:23:18.451Z,24.13
2018-07-27T12:25:50.961Z,25.80
2018-07-27T12:28:23.501Z,27.20
2018-07-27T12:30:56.259Z,24.40
2018-07-27T12:34:58.056Z,24.82
2018-07-27T12:37:30.724Z,26.40
2018-07-27T12:40:04.665Z,27.90
2018-07-27T12:42:37.483Z,24.03
2018-07-27T12:45:14.311Z,25.27
2018-07-27T12:47:47.328Z,26.95
2018-07-27T12:50:25.733Z,21.07
2018-07-27T12:52:58.477Z,29.33
2018-07-27T12:55:33.139Z,28.23
2018-07-27T12:58:06.584Z,29.67
2018-07-27T13:00:39.182Z,31.33
2018-07-27T13:03:12.517Z,27.40
2018-07-27T13:05:45.030Z,29.77
2018-07-27T13:08:17.537Z,28.53
2018-07-27T13:10:49.997Z,26.60
2018-07-27T13:13:22.707Z,25.63
2018-07-27T13:15:55.149Z,28.80
2018-07-27T13:18:28.008Z,32.23
2018-07-27T13:21:00.961Z,25.17
2018-07-27T13:23:33.535Z,38.63
2018-07-27T13:28:48.217Z,28.10
2018-07-27T13:31:21.756Z,26.30
2018-07-27T13:34:11.075Z,27.87
2018-07-27T13:36:43.555Z,22.53
2018-07-27T13:39:16.054Z,25.63
2018-07-27T13:41:49.280Z,24.87
2018-07-27T13:44:21.737Z,23.43
2018-07-27T13:46:55.198Z,27.20
2018-07-27T13:49:29.132Z,21.47
2018-07-27T13:52:06.612Z,49.83
2018-07-27T13:54:47.130Z,20.60
2018-07-27T13:57:20.222Z,25.10
2018-07-27T13:59:57.179Z,25.65
2018-07-27T14:02:29.543Z,21.10
2018-07-27T14:05:07.351Z,24.03
2018-07-27T14:10:34.886Z,18.37
2018-07-27T14:16:03.860Z,21.67
2018-07-27T14:18:39.710Z,26.77
2018-07-27T14:21:13.898Z,21.17
2018-07-27T14:23:52.253Z,39.70
2018-07-27T15:09:56.578Z,22.33
2018-07-27T15:12:29.481Z,24.87
2018-07-27T15:15:02.079Z,19.10
2018-07-27T15:17:34.820Z,23.13
2018-07-27T15:20:07.584Z,21.77
2018-07-27T15:22:41.657Z,15.10
2018-07-27T15:25:14.436Z,15.67
2018-07-27T15:27:48.406Z,16.90
2018-07-27T15:30:21.291Z,18.27
2018-07-27T15:32:54.640Z,19.62
2018-07-27T15:35:27.664Z,19.13
2018-07-27T15:38:00.410Z,17.77
2018-07-27T15:40:33.784Z,17.73
2018-07-27T15:43:06.541Z,25.00
2018-07-27T15:45:39.203Z,15.23
2018-07-27T15:48:12.066Z,17.03
2018-07-27T15:50:44.817Z,18.47
2018-07-27T15:53:17.314Z,15.43
2018-07-27T15:55:50.289Z,21.27
2018-07-27T15:58:23.096Z,21.00
2018-07-27T16:00:55.818Z,35.00
2018-07-27T16:03:29.767Z,19.13
2018-07-27T16:06:02.626Z,19.20
2018-07-27T16:08:35.418Z,21.70
2018-07-27T16:11:08.800Z,24.60
2018-07-27T16:13:41.412Z,25.50
2018-07-27T16:16:14.441Z,22.07
2018-07-27T16:18:46.907Z,20.23
2018-07-27T16:21:19.819Z,21.27
2018-07-27T16:23:52.653Z,27.27
2018-07-27T16:26:25.421Z,17.83
2018-07-27T16:28:58.583Z,18.97
2018-07-27T16:31:31.847Z,23.20
2018-07-27T16:34:04.477Z,18.83
2018-07-27T16:36:37.647Z,20.07
2018-07-27T16:39:10.794Z,22.23
2018-07-27T16:41:45.200Z,20.60
2018-07-27T16:44:18.585Z,23.77
2018-07-27T16:58:01.908Z,20.70
2018-07-27T17:00:34.789Z,23.97
2018-07-27T17:03:07.653Z,22.43
2018-07-27T17:05:40.124Z,19.63
2018-07-27T17:08:12.776Z,18.53
2018-07-27T17:10:45.586Z,23.07
2018-07-27T17:13:18.320Z,18.50
2018-07-27T17:15:52.125Z,12.83
2018-07-27T17:18:24.713Z,14.77
2018-07-27T17:20:59.282Z,15.30
2018-07-27T17:23:32.520Z,18.57
2018-07-27T17:26:05.338Z,13.40
2018-07-27T17:28:40.828Z,21.40
2018-07-27T17:31:13.392Z,16.45
2018-07-27T17:33:46.499Z,19.73
2018-07-27T17:36:24.153Z,20.02
2018-07-27T17:38:57.011Z,19.37
2018-07-27T17:41:29.626Z,18.57
2018-07-27T17:44:03.666Z,19.30
2018-07-27T17:46:36.704Z,18.57
2018-07-27T17:49:11.181Z,14.55
2018-07-27T17:51:44.330Z,21.45
2018-07-27T17:54:16.863Z,25.75
2018-07-27T17:56:54.184Z,16.75
2018-07-27T17:59:28.408Z,18.00
2018-07-27T18:01:59.826Z,20.37
2018-07-27T18:04:33.149Z,24.47
2018-07-27T18:07:05.975Z,20.15
2018-07-27T18:09:40.047Z,18.52
2018-07-27T18:12:13.340Z,19.02
2018-07-27T18:14:46.267Z,17.27
2018-07-27T18:17:20.034Z,21.68
2018-07-27T18:19:55.094Z,20.50
2018-07-27T18:22:29.875Z,18.60
2018-07-27T18:25:03.511Z,18.52
2018-07-27T18:27:37.149Z,24.37
2018-07-27T18:30:11.427Z,18.48
2018-07-27T18:32:44.028Z,19.50
2018-07-27T18:35:18.768Z,22.13
2018-07-27T18:37:52.420Z,14.55
2018-07-27T18:40:26.201Z,19.50
2018-07-27T18:42:59.550Z,19.20
2018-07-27T18:45:34.508Z,15.75
2018-07-27T18:48:08.735Z,21.35
2018-07-27T18:50:43.669Z,11.95
2018-07-27T18:53:16.495Z,16.55
2018-07-27T18:55:48.004Z,17.30
2018-07-27T18:58:21.409Z,16.50
2018-07-27T19:00:54.750Z,19.17
2018-07-27T19:03:28.031Z,14.15
2018-07-27T19:06:10.563Z,19.82
2018-07-27T19:08:51.339Z,20.37
2018-07-27T20:58:48.630Z,12.90
2018-07-27T21:01:23.862Z,9.68
2018-07-27T21:03:57.133Z,17.20
2018-07-27T21:06:30.020Z,15.32
2018-07-27T21:09:02.712Z,9.55
2018-07-27T21:11:35.372Z,14.47
2018-07-27T21:14:08.268Z,13.95
2018-07-27T21:16:41.063Z,16.37
2018-07-27T21:19:12.484Z,18.57
2018-07-27T21:21:46.201Z,10.55
2018-07-27T21:24:18.951Z,17.95
2018-07-27T21:26:51.597Z,12.98
2018-07-27T21:29:24.882Z,14.25
2018-07-27T21:31:57.668Z,18.35
2018-07-27T21:34:30.269Z,12.00
2018-07-27T21:37:02.969Z,16.50
2018-07-27T21:39:35.832Z,17.50
2018-07-27T21:42:29.115Z,20.85
2018-07-27T21:45:01.967Z,17.70
2018-07-27T21:47:34.752Z,15.90
2018-07-27T21:50:08.157Z,12.95
2018-07-27T21:52:40.788Z,12.82
2018-07-27T21:55:13.764Z,15.13
2018-07-27T21:57:47.328Z,15.70
2018-07-27T22:00:19.568Z,15.90
2018-07-27T22:02:52.340Z,15.70
2018-07-27T22:05:27.069Z,15.93
2018-07-27T22:08:00.205Z,15.88
2018-07-27T22:10:33.517Z,20.90
2018-07-27T22:13:09.516Z,16.82
2018-07-27T22:15:49.253Z,17.82
2018-07-27T22:18:21.957Z,15.95
2018-07-27T22:20:54.676Z,16.27
2018-07-27T22:23:28.576Z,16.70
2018-07-27T22:26:02.929Z,14.00
2018-07-27T22:28:35.686Z,24.52
2018-07-27T22:31:16.548Z,18.37
2018-07-27T22:33:50.540Z,17.35
2018-07-27T22:36:24.473Z,14.13
2018-07-27T22:38:57.182Z,12.07
2018-07-27T22:41:30.619Z,18.65
2018-07-27T22:44:03.625Z,11.00
2018-07-27T22:46:36.422Z,19.52
2018-07-27T22:49:09.309Z,14.47
2018-07-27T22:51:41.912Z,21.70
2018-07-27T22:54:15.138Z,20.90
2018-07-27T22:56:47.880Z,17.70
2018-07-27T22:59:20.668Z,18.00
2018-07-27T23:01:54.375Z,13.83
2018-07-27T23:04:27.285Z,24.37
2018-07-27T23:06:59.940Z,25.47
2018-07-27T23:09:32.690Z,14.98
2018-07-27T23:12:05.187Z,17.67
2018-07-27T23:14:37.744Z,26.43
2018-07-27T23:17:10.265Z,19.50
2018-07-27T23:19:43.344Z,13.63
2018-07-27T23:22:15.931Z,18.77
2018-07-27T23:24:48.665Z,15.00
2018-07-27T23:27:21.372Z,13.67
2018-07-27T23:29:54.015Z,18.33
2018-07-27T23:32:26.884Z,15.13
2018-07-27T23:34:59.616Z,17.70
2018-07-27T23:37:32.306Z,19.50
2018-07-27T23:40:05.436Z,17.50
2018-07-27T23:42:38.119Z,21.83
2018-07-27T23:45:11.543Z,19.23
2018-07-27T23:47:44.184Z,15.97
2018-07-27T23:50:16.815Z,17.83
2018-07-27T23:52:49.628Z,18.93
2018-07-27T23:55:22.250Z,23.77
2018-07-27T23:57:54.981Z,20.37
